SUD009 ULLI-UWGG
Flight info
| Callsign | SUD009 |
|---|---|
| Flight time | 1h 22m |
| Altitude | 35000 |
| Route | SUGIN1B SUGIN T873 NIRGI T73 DESUD P164 GAKLU N869 RANTO |
| Aircraft | A320/M-SDFGHILORVWY/S |
Departure
| Time | 2026-04-21 20:18 |
|---|---|
| Airport | Pulkovo Airport (ULLI) |
Arrival
| Time | 2026-04-21 21:40 |
|---|---|
| Airport | Nizhny Novgorod / Strigino International Airport (UWGG) |
| Time | Latitude | Longitude | Altitude | Speed | Heading |
|---|---|---|---|---|---|
| 2026-04-21 20:01 | 59.79745 | 30.26608 | 76 ft | 0 kts | 107° |
| 2026-04-21 20:07 | 59.79748 | 30.26589 | 69 ft | 4 kts | 109° |
| 2026-04-21 20:07 | 59.79759 | 30.26541 | 65 ft | 4 kts | 118° |
| 2026-04-21 20:07 | 59.79774 | 30.26497 | 69 ft | 3 kts | 131° |
| 2026-04-21 20:07 | 59.79776 | 30.26491 | 70 ft | 0 kts | 131° |
| 2026-04-21 20:09 | 59.79775 | 30.26492 | 70 ft | 1 kts | 135° |
| 2026-04-21 20:09 | 59.79752 | 30.26491 | 70 ft | 7 kts | 184° |
| 2026-04-21 20:10 | 59.79689 | 30.26452 | 74 ft | 11 kts | 199° |
| 2026-04-21 20:10 | 59.79599 | 30.26398 | 75 ft | 17 kts | 195° |
| 2026-04-21 20:10 | 59.79492 | 30.26378 | 77 ft | 11 kts | 151° |
| 2026-04-21 20:10 | 59.79478 | 30.26422 | 72 ft | 4 kts | 94° |
| 2026-04-21 20:11 | 59.79474 | 30.26528 | 77 ft | 12 kts | 101° |
| 2026-04-21 20:11 | 59.79443 | 30.26733 | 76 ft | 19 kts | 107° |
| 2026-04-21 20:11 | 59.79400 | 30.27023 | 78 ft | 25 kts | 107° |
| 2026-04-21 20:11 | 59.79350 | 30.27359 | 80 ft | 26 kts | 108° |
| 2026-04-21 20:12 | 59.79304 | 30.27663 | 82 ft | 24 kts | 106° |
| 2026-04-21 20:12 | 59.79253 | 30.28012 | 83 ft | 21 kts | 108° |
| 2026-04-21 20:12 | 59.79232 | 30.28144 | 80 ft | 10 kts | 108° |
| 2026-04-21 20:12 | 59.79175 | 30.28227 | 83 ft | 0 kts | 158° |
| 2026-04-21 20:15 | 59.79175 | 30.28228 | 83 ft | 1 kts | 158° |
| 2026-04-21 20:15 | 59.79139 | 30.28248 | 84 ft | 10 kts | 167° |
| 2026-04-21 20:16 | 59.79058 | 30.28199 | 84 ft | 15 kts | 249° |
| 2026-04-21 20:16 | 59.79073 | 30.28012 | 81 ft | 2 kts | 287° |
| 2026-04-21 20:17 | 59.79104 | 30.27812 | 83 ft | 47 kts | 287° |
| 2026-04-21 20:17 | 59.79261 | 30.26745 | 76 ft | 111 kts | 287° |
| 2026-04-21 20:17 | 59.79530 | 30.24927 | 73 ft | 161 kts | 286° |
| 2026-04-21 20:17 | 59.79859 | 30.22691 | 456 ft | 172 kts | 286° |
| 2026-04-21 20:18 | 59.80093 | 30.21169 | 807 ft | 176 kts | 287° |
| 2026-04-21 20:18 | 59.80596 | 30.18073 | 1736 ft | 168 kts | 290° |
| 2026-04-21 20:18 | 59.80899 | 30.16119 | 2046 ft | 137 kts | 289° |
| 2026-04-21 20:18 | 59.81168 | 30.14153 | 2112 ft | 154 kts | 287° |
| 2026-04-21 20:19 | 59.81384 | 30.12255 | 2768 ft | 136 kts | 286° |
| 2026-04-21 20:19 | 59.81666 | 30.10339 | 2900 ft | 155 kts | 292° |
| 2026-04-21 20:19 | 59.82011 | 30.08146 | 3018 ft | 181 kts | 290° |
| 2026-04-21 20:19 | 59.82406 | 30.05542 | 3186 ft | 209 kts | 289° |
| 2026-04-21 20:20 | 59.82838 | 30.02633 | 3597 ft | 227 kts | 289° |
| 2026-04-21 20:20 | 59.83034 | 29.99480 | 4282 ft | 239 kts | 261° |
| 2026-04-21 20:20 | 59.82239 | 29.96582 | 5007 ft | 247 kts | 221° |
| 2026-04-21 20:20 | 59.80718 | 29.94943 | 5755 ft | 251 kts | 199° |
| 2026-04-21 20:21 | 59.79044 | 29.93907 | 6552 ft | 254 kts | 194° |
| 2026-04-21 20:21 | 59.77319 | 29.93036 | 7267 ft | 257 kts | 193° |
| 2026-04-21 20:21 | 59.75542 | 29.92643 | 7963 ft | 259 kts | 169° |
| 2026-04-21 20:21 | 59.73891 | 29.93816 | 8657 ft | 258 kts | 142° |
| 2026-04-21 20:22 | 59.72609 | 29.96398 | 9008 ft | 272 kts | 115° |
| 2026-04-21 20:22 | 59.71633 | 30.02466 | 10084 ft | 281 kts | 102° |
| 2026-04-21 20:22 | 59.70883 | 30.07625 | 10469 ft | 309 kts | 103° |
| 2026-04-21 20:23 | 59.70259 | 30.11855 | 10649 ft | 332 kts | 103° |
| 2026-04-21 20:23 | 59.69701 | 30.16358 | 11118 ft | 340 kts | 94° |
| 2026-04-21 20:23 | 59.69566 | 30.21047 | 11771 ft | 343 kts | 89° |
| 2026-04-21 20:23 | 59.69481 | 30.25787 | 12436 ft | 347 kts | 89° |
| 2026-04-21 20:24 | 59.69422 | 30.29031 | 12881 ft | 350 kts | 89° |
| 2026-04-21 20:24 | 59.69295 | 30.33884 | 13526 ft | 356 kts | 93° |
| 2026-04-21 20:24 | 59.68830 | 30.38751 | 14122 ft | 363 kts | 98° |
| 2026-04-21 20:24 | 59.68300 | 30.43654 | 14711 ft | 366 kts | 98° |
| 2026-04-21 20:25 | 59.67779 | 30.48539 | 15293 ft | 369 kts | 98° |
| 2026-04-21 20:25 | 59.67252 | 30.53528 | 15880 ft | 372 kts | 97° |
| 2026-04-21 20:25 | 59.66718 | 30.58568 | 16467 ft | 376 kts | 97° |
| 2026-04-21 20:25 | 59.66176 | 30.63637 | 17046 ft | 379 kts | 97° |
| 2026-04-21 20:26 | 59.65624 | 30.68756 | 17623 ft | 382 kts | 97° |
| 2026-04-21 20:26 | 59.65105 | 30.73927 | 18198 ft | 385 kts | 95° |
| 2026-04-21 20:26 | 59.64654 | 30.79156 | 18715 ft | 387 kts | 94° |
| 2026-04-21 20:26 | 59.64241 | 30.84422 | 19271 ft | 389 kts | 94° |
| 2026-04-21 20:27 | 59.63838 | 30.89714 | 19817 ft | 391 kts | 94° |
| 2026-04-21 20:27 | 59.63426 | 30.95042 | 20350 ft | 393 kts | 94° |
| 2026-04-21 20:27 | 59.62999 | 31.00383 | 20867 ft | 395 kts | 94° |
| 2026-04-21 20:27 | 59.62557 | 31.05751 | 21368 ft | 397 kts | 94° |
| 2026-04-21 20:28 | 59.62102 | 31.11144 | 21856 ft | 399 kts | 94° |
| 2026-04-21 20:28 | 59.61634 | 31.16562 | 22349 ft | 401 kts | 94° |
| 2026-04-21 20:28 | 59.61161 | 31.22007 | 22819 ft | 403 kts | 94° |
| 2026-04-21 20:28 | 59.60684 | 31.27488 | 23280 ft | 405 kts | 94° |
| 2026-04-21 20:29 | 59.60207 | 31.32980 | 23703 ft | 407 kts | 94° |
| 2026-04-21 20:29 | 59.59727 | 31.38499 | 24067 ft | 409 kts | 94° |
| 2026-04-21 20:29 | 59.59243 | 31.44042 | 24439 ft | 410 kts | 94° |
| 2026-04-21 20:29 | 59.58754 | 31.49596 | 24806 ft | 412 kts | 94° |
| 2026-04-21 20:30 | 59.58260 | 31.55174 | 25164 ft | 414 kts | 94° |
| 2026-04-21 20:30 | 59.57765 | 31.60773 | 25504 ft | 415 kts | 94° |
| 2026-04-21 20:30 | 59.57265 | 31.66395 | 25851 ft | 417 kts | 94° |
| 2026-04-21 20:30 | 59.56761 | 31.72026 | 26171 ft | 418 kts | 94° |
| 2026-04-21 20:31 | 59.56249 | 31.77693 | 26497 ft | 420 kts | 94° |
| 2026-04-21 20:31 | 59.55735 | 31.83356 | 26806 ft | 421 kts | 94° |
| 2026-04-21 20:31 | 59.55214 | 31.89062 | 27124 ft | 423 kts | 95° |
| 2026-04-21 20:31 | 59.54688 | 31.94774 | 27435 ft | 424 kts | 95° |
| 2026-04-21 20:32 | 59.54155 | 32.00502 | 27728 ft | 426 kts | 96° |
| 2026-04-21 20:32 | 59.53333 | 32.06161 | 28006 ft | 435 kts | 105° |
| 2026-04-21 20:32 | 59.52015 | 32.11587 | 28284 ft | 444 kts | 115° |
| 2026-04-21 20:32 | 59.50224 | 32.16598 | 28586 ft | 453 kts | 124° |
| 2026-04-21 20:33 | 59.48032 | 32.21112 | 28826 ft | 459 kts | 129° |
| 2026-04-21 20:33 | 59.45764 | 32.25535 | 29068 ft | 460 kts | 129° |
| 2026-04-21 20:33 | 59.43490 | 32.29973 | 29305 ft | 461 kts | 129° |
| 2026-04-21 20:33 | 59.41210 | 32.34418 | 29575 ft | 461 kts | 129° |
| 2026-04-21 20:34 | 59.38935 | 32.38845 | 29906 ft | 460 kts | 129° |
| 2026-04-21 20:34 | 59.36658 | 32.43262 | 30215 ft | 459 kts | 129° |
| 2026-04-21 20:34 | 59.34388 | 32.47662 | 30471 ft | 459 kts | 129° |
| 2026-04-21 20:34 | 59.32120 | 32.52047 | 30745 ft | 458 kts | 129° |
| 2026-04-21 20:35 | 59.29859 | 32.56409 | 31012 ft | 457 kts | 129° |
| 2026-04-21 20:35 | 59.27595 | 32.60774 | 31326 ft | 456 kts | 129° |
| 2026-04-21 20:35 | 59.25338 | 32.65112 | 31594 ft | 455 kts | 129° |
| 2026-04-21 20:35 | 59.23077 | 32.69449 | 31860 ft | 455 kts | 129° |
| 2026-04-21 20:36 | 59.20818 | 32.73777 | 32123 ft | 455 kts | 130° |
| 2026-04-21 20:36 | 59.18594 | 32.78035 | 32379 ft | 454 kts | 130° |
| 2026-04-21 20:36 | 59.16335 | 32.82347 | 32640 ft | 454 kts | 130° |
| 2026-04-21 20:36 | 59.14081 | 32.86640 | 32898 ft | 453 kts | 130° |
| 2026-04-21 20:37 | 59.11827 | 32.90921 | 33165 ft | 453 kts | 130° |
| 2026-04-21 20:37 | 59.09569 | 32.95199 | 33419 ft | 453 kts | 130° |
| 2026-04-21 20:37 | 59.07312 | 32.99470 | 33681 ft | 452 kts | 130° |
| 2026-04-21 20:37 | 59.05057 | 33.03721 | 33943 ft | 452 kts | 130° |
| 2026-04-21 20:38 | 59.02929 | 33.07648 | 34140 ft | 452 kts | 133° |
| 2026-04-21 20:38 | 59.00685 | 33.11391 | 34292 ft | 453 kts | 134° |
| 2026-04-21 20:38 | 58.98356 | 33.15482 | 34454 ft | 452 kts | 131° |
| 2026-04-21 20:38 | 58.96127 | 33.19769 | 34638 ft | 451 kts | 129° |
| 2026-04-21 20:39 | 58.93939 | 33.24135 | 34815 ft | 451 kts | 129° |
| 2026-04-21 20:39 | 58.91753 | 33.28499 | 34970 ft | 452 kts | 129° |
| 2026-04-21 20:39 | 58.87281 | 33.37133 | 35022 ft | 455 kts | 131° |
| 2026-04-21 20:40 | 58.82700 | 33.45594 | 35037 ft | 457 kts | 132° |
| 2026-04-21 20:40 | 58.78082 | 33.54025 | 35019 ft | 457 kts | 132° |
| 2026-04-21 20:41 | 58.73475 | 33.62446 | 35015 ft | 457 kts | 132° |
| 2026-04-21 20:41 | 58.68869 | 33.70886 | 35015 ft | 457 kts | 131° |
| 2026-04-21 20:42 | 58.64266 | 33.79309 | 35009 ft | 457 kts | 132° |
| 2026-04-21 20:42 | 58.59656 | 33.87703 | 35034 ft | 457 kts | 132° |
| 2026-04-21 20:43 | 58.55065 | 33.96035 | 35019 ft | 458 kts | 132° |
| 2026-04-21 20:43 | 58.50405 | 34.04447 | 35014 ft | 458 kts | 132° |
| 2026-04-21 20:44 | 58.45786 | 34.12739 | 35013 ft | 458 kts | 133° |
| 2026-04-21 20:44 | 58.41132 | 34.21068 | 35013 ft | 459 kts | 133° |
| 2026-04-21 20:45 | 58.36475 | 34.29369 | 35028 ft | 459 kts | 133° |
| 2026-04-21 20:45 | 58.32136 | 34.37084 | 35016 ft | 459 kts | 133° |
| 2026-04-21 20:46 | 58.27437 | 34.45403 | 35005 ft | 459 kts | 133° |
| 2026-04-21 20:46 | 58.22750 | 34.53676 | 35006 ft | 459 kts | 133° |
| 2026-04-21 20:47 | 58.18025 | 34.61839 | 34992 ft | 461 kts | 135° |
| 2026-04-21 20:47 | 58.13098 | 34.69647 | 35013 ft | 462 kts | 137° |
| 2026-04-21 20:48 | 58.08107 | 34.77320 | 34999 ft | 462 kts | 137° |
| 2026-04-21 20:48 | 58.03148 | 34.85051 | 34987 ft | 462 kts | 136° |
| 2026-04-21 20:49 | 57.98204 | 34.92827 | 34981 ft | 463 kts | 136° |
| 2026-04-21 20:49 | 57.93259 | 35.00589 | 34985 ft | 463 kts | 136° |
| 2026-04-21 20:50 | 57.88293 | 35.08312 | 35002 ft | 463 kts | 137° |
| 2026-04-21 20:50 | 57.83318 | 35.16022 | 34996 ft | 464 kts | 137° |
| 2026-04-21 20:51 | 57.78346 | 35.23714 | 34991 ft | 464 kts | 137° |
| 2026-04-21 20:51 | 57.73363 | 35.31394 | 34987 ft | 464 kts | 137° |
| 2026-04-21 20:52 | 57.68378 | 35.39040 | 34986 ft | 464 kts | 137° |
| 2026-04-21 20:52 | 57.63433 | 35.46770 | 34998 ft | 462 kts | 132° |
| 2026-04-21 20:53 | 57.59588 | 35.56178 | 34985 ft | 454 kts | 114° |
| 2026-04-21 20:53 | 57.57232 | 35.67017 | 34980 ft | 450 kts | 107° |
| 2026-04-21 20:54 | 57.55077 | 35.77951 | 34972 ft | 451 kts | 107° |
| 2026-04-21 20:54 | 57.52876 | 35.88921 | 34971 ft | 451 kts | 107° |
| 2026-04-21 20:55 | 57.50695 | 35.99798 | 34969 ft | 452 kts | 107° |
| 2026-04-21 20:55 | 57.48496 | 36.10752 | 34960 ft | 452 kts | 107° |
| 2026-04-21 20:56 | 57.46302 | 36.21718 | 34951 ft | 453 kts | 107° |
| 2026-04-21 20:56 | 57.44105 | 36.32687 | 34950 ft | 453 kts | 107° |
| 2026-04-21 20:57 | 57.41882 | 36.43655 | 34944 ft | 454 kts | 108° |
| 2026-04-21 20:57 | 57.39641 | 36.54595 | 34947 ft | 455 kts | 108° |
| 2026-04-21 20:58 | 57.37384 | 36.65566 | 34937 ft | 455 kts | 108° |
| 2026-04-21 20:58 | 57.35125 | 36.76543 | 34941 ft | 456 kts | 108° |
| 2026-04-21 20:59 | 57.32861 | 36.87504 | 34930 ft | 456 kts | 108° |
| 2026-04-21 20:59 | 57.30576 | 36.98469 | 34930 ft | 457 kts | 108° |
| 2026-04-21 21:00 | 57.28273 | 37.09406 | 34929 ft | 457 kts | 109° |
| 2026-04-21 21:00 | 57.25937 | 37.20360 | 34911 ft | 458 kts | 109° |
| 2026-04-21 21:01 | 57.23605 | 37.31316 | 34895 ft | 458 kts | 109° |
| 2026-04-21 21:01 | 57.21274 | 37.42278 | 34902 ft | 459 kts | 109° |
| 2026-04-21 21:02 | 57.18967 | 37.53233 | 34899 ft | 458 kts | 105° |
| 2026-04-21 21:02 | 57.16841 | 37.64179 | 34907 ft | 459 kts | 114° |
| 2026-04-21 21:03 | 57.13939 | 37.74660 | 34907 ft | 459 kts | 115° |
| 2026-04-21 21:03 | 57.11025 | 37.85115 | 34895 ft | 459 kts | 115° |
| 2026-04-21 21:04 | 57.08110 | 37.95552 | 34897 ft | 459 kts | 115° |
| 2026-04-21 21:04 | 57.05193 | 38.05984 | 34904 ft | 459 kts | 115° |
| 2026-04-21 21:05 | 57.02295 | 38.16405 | 34897 ft | 459 kts | 115° |
| 2026-04-21 21:05 | 56.99404 | 38.26849 | 34899 ft | 459 kts | 115° |
| 2026-04-21 21:06 | 56.96513 | 38.37276 | 34896 ft | 459 kts | 115° |
| 2026-04-21 21:06 | 56.93621 | 38.47693 | 34898 ft | 459 kts | 115° |
| 2026-04-21 21:07 | 56.90725 | 38.58115 | 34890 ft | 459 kts | 115° |
| 2026-04-21 21:07 | 56.87845 | 38.68535 | 34894 ft | 459 kts | 115° |
| 2026-04-21 21:08 | 56.84974 | 38.78957 | 34894 ft | 459 kts | 115° |
| 2026-04-21 21:08 | 56.82101 | 38.89373 | 34891 ft | 459 kts | 115° |
| 2026-04-21 21:09 | 56.79242 | 38.99728 | 34886 ft | 459 kts | 115° |
| 2026-04-21 21:09 | 56.76367 | 39.10131 | 34885 ft | 459 kts | 115° |
| 2026-04-21 21:10 | 56.73511 | 39.20542 | 34888 ft | 460 kts | 115° |
| 2026-04-21 21:10 | 56.71119 | 39.29283 | 34885 ft | 460 kts | 115° |
| 2026-04-21 21:11 | 56.67805 | 39.41379 | 34882 ft | 460 kts | 115° |
| 2026-04-21 21:11 | 56.65772 | 39.50265 | 34879 ft | 457 kts | 100° |
| 2026-04-21 21:12 | 56.64758 | 39.61645 | 34874 ft | 457 kts | 97° |
| 2026-04-21 21:12 | 56.63803 | 39.73144 | 34876 ft | 458 kts | 97° |
| 2026-04-21 21:13 | 56.62843 | 39.84519 | 34873 ft | 459 kts | 97° |
| 2026-04-21 21:13 | 56.61847 | 39.95975 | 34873 ft | 460 kts | 97° |
| 2026-04-21 21:14 | 56.60833 | 40.07450 | 34872 ft | 460 kts | 97° |
| 2026-04-21 21:14 | 56.59812 | 40.18932 | 34871 ft | 461 kts | 97° |
| 2026-04-21 21:15 | 56.58809 | 40.30403 | 34874 ft | 460 kts | 97° |
| 2026-04-21 21:15 | 56.57847 | 40.41876 | 34873 ft | 460 kts | 97° |
| 2026-04-21 21:16 | 56.56889 | 40.53327 | 34874 ft | 460 kts | 97° |
| 2026-04-21 21:16 | 56.55927 | 40.64804 | 34866 ft | 460 kts | 97° |
| 2026-04-21 21:17 | 56.54964 | 40.76266 | 34867 ft | 460 kts | 97° |
| 2026-04-21 21:17 | 56.53998 | 40.87722 | 34874 ft | 460 kts | 97° |
| 2026-04-21 21:18 | 56.53029 | 40.99163 | 34229 ft | 459 kts | 97° |
| 2026-04-21 21:18 | 56.52541 | 41.04894 | 33433 ft | 460 kts | 97° |
| 2026-04-21 21:18 | 56.52054 | 41.10623 | 32596 ft | 461 kts | 97° |
| 2026-04-21 21:19 | 56.51571 | 41.16361 | 31760 ft | 461 kts | 97° |
| 2026-04-21 21:19 | 56.51095 | 41.22111 | 30943 ft | 461 kts | 97° |
| 2026-04-21 21:19 | 56.50625 | 41.27855 | 30088 ft | 462 kts | 97° |
| 2026-04-21 21:19 | 56.50160 | 41.33615 | 29136 ft | 462 kts | 97° |
| 2026-04-21 21:20 | 56.49692 | 41.39338 | 28432 ft | 457 kts | 97° |
| 2026-04-21 21:20 | 56.49222 | 41.44991 | 27735 ft | 452 kts | 97° |
| 2026-04-21 21:20 | 56.48737 | 41.50573 | 27055 ft | 447 kts | 100° |
| 2026-04-21 21:20 | 56.47747 | 41.55866 | 26430 ft | 444 kts | 116° |
| 2026-04-21 21:21 | 56.46244 | 41.60724 | 25790 ft | 441 kts | 119° |
| 2026-04-21 21:21 | 56.44701 | 41.65473 | 25152 ft | 438 kts | 119° |
| 2026-04-21 21:21 | 56.43152 | 41.70196 | 24539 ft | 434 kts | 119° |
| 2026-04-21 21:21 | 56.41614 | 41.74855 | 23948 ft | 431 kts | 119° |
| 2026-04-21 21:22 | 56.40077 | 41.79480 | 23354 ft | 428 kts | 119° |
| 2026-04-21 21:22 | 56.38550 | 41.84054 | 22711 ft | 424 kts | 118° |
| 2026-04-21 21:22 | 56.37174 | 41.88740 | 22109 ft | 419 kts | 115° |
| 2026-04-21 21:22 | 56.35864 | 41.93405 | 21553 ft | 416 kts | 114° |
| 2026-04-21 21:23 | 56.34558 | 41.98029 | 21012 ft | 412 kts | 114° |
| 2026-04-21 21:23 | 56.33254 | 42.02604 | 20486 ft | 408 kts | 114° |
| 2026-04-21 21:23 | 56.31954 | 42.07123 | 19980 ft | 405 kts | 114° |
| 2026-04-21 21:23 | 56.30659 | 42.11607 | 19480 ft | 402 kts | 114° |
| 2026-04-21 21:24 | 56.29378 | 42.16059 | 18989 ft | 399 kts | 114° |
| 2026-04-21 21:24 | 56.28099 | 42.20467 | 18512 ft | 396 kts | 114° |
| 2026-04-21 21:24 | 56.26821 | 42.24833 | 18021 ft | 393 kts | 114° |
| 2026-04-21 21:24 | 56.25547 | 42.29166 | 17488 ft | 390 kts | 114° |
| 2026-04-21 21:25 | 56.24300 | 42.33399 | 16975 ft | 386 kts | 114° |
| 2026-04-21 21:25 | 56.23032 | 42.37701 | 16469 ft | 383 kts | 114° |
| 2026-04-21 21:25 | 56.21791 | 42.41912 | 15977 ft | 380 kts | 114° |
| 2026-04-21 21:25 | 56.20576 | 42.46031 | 15503 ft | 376 kts | 114° |
| 2026-04-21 21:26 | 56.19354 | 42.50170 | 15031 ft | 373 kts | 114° |
| 2026-04-21 21:26 | 56.18154 | 42.54240 | 14567 ft | 370 kts | 114° |
| 2026-04-21 21:26 | 56.16950 | 42.58325 | 14108 ft | 367 kts | 115° |
| 2026-04-21 21:26 | 56.15775 | 42.62390 | 13620 ft | 365 kts | 114° |
| 2026-04-21 21:27 | 56.14618 | 42.66423 | 13105 ft | 362 kts | 114° |
| 2026-04-21 21:27 | 56.13478 | 42.70421 | 12586 ft | 359 kts | 114° |
| 2026-04-21 21:27 | 56.12344 | 42.74387 | 12068 ft | 356 kts | 114° |
| 2026-04-21 21:27 | 56.11216 | 42.78317 | 11551 ft | 353 kts | 114° |
| 2026-04-21 21:28 | 56.10094 | 42.82215 | 11037 ft | 350 kts | 114° |
| 2026-04-21 21:28 | 56.08976 | 42.86073 | 10529 ft | 348 kts | 114° |
| 2026-04-21 21:28 | 56.06756 | 42.93688 | 9517 ft | 342 kts | 114° |
| 2026-04-21 21:29 | 56.05672 | 42.97376 | 9359 ft | 328 kts | 114° |
| 2026-04-21 21:29 | 56.04627 | 43.00909 | 9216 ft | 314 kts | 114° |
| 2026-04-21 21:29 | 56.03621 | 43.04288 | 9077 ft | 302 kts | 114° |
| 2026-04-21 21:29 | 56.02646 | 43.07538 | 8933 ft | 291 kts | 114° |
| 2026-04-21 21:30 | 56.01695 | 43.10687 | 8664 ft | 285 kts | 114° |
| 2026-04-21 21:30 | 56.00755 | 43.13786 | 8302 ft | 282 kts | 114° |
| 2026-04-21 21:30 | 55.99832 | 43.16860 | 7909 ft | 280 kts | 112° |
| 2026-04-21 21:30 | 55.99173 | 43.20076 | 7540 ft | 272 kts | 96° |
| 2026-04-21 21:31 | 55.99178 | 43.23360 | 7159 ft | 262 kts | 77° |
| 2026-04-21 21:31 | 55.99558 | 43.26522 | 6757 ft | 260 kts | 75° |
| 2026-04-21 21:31 | 55.99778 | 43.29724 | 6374 ft | 259 kts | 78° |
| 2026-04-21 21:31 | 56.00018 | 43.32860 | 6183 ft | 248 kts | 77° |
| 2026-04-21 21:32 | 56.00251 | 43.35847 | 5995 ft | 239 kts | 77° |
| 2026-04-21 21:32 | 56.00477 | 43.38755 | 5647 ft | 236 kts | 77° |
| 2026-04-21 21:32 | 56.00705 | 43.41656 | 5258 ft | 235 kts | 77° |
| 2026-04-21 21:32 | 56.00933 | 43.44544 | 4866 ft | 235 kts | 78° |
| 2026-04-21 21:33 | 56.01165 | 43.47427 | 4470 ft | 234 kts | 78° |
| 2026-04-21 21:33 | 56.01402 | 43.50302 | 4076 ft | 234 kts | 78° |
| 2026-04-21 21:33 | 56.01651 | 43.53176 | 3690 ft | 234 kts | 78° |
| 2026-04-21 21:33 | 56.01911 | 43.56041 | 3297 ft | 234 kts | 78° |
| 2026-04-21 21:34 | 56.02183 | 43.58899 | 3022 ft | 231 kts | 78° |
| 2026-04-21 21:34 | 56.02461 | 43.61747 | 3002 ft | 234 kts | 77° |
| 2026-04-21 21:34 | 56.02743 | 43.64625 | 3004 ft | 235 kts | 77° |
| 2026-04-21 21:34 | 56.03099 | 43.67461 | 3004 ft | 233 kts | 66° |
| 2026-04-21 21:35 | 56.03910 | 43.69931 | 3001 ft | 230 kts | 46° |
| 2026-04-21 21:35 | 56.05128 | 43.71712 | 3017 ft | 222 kts | 26° |
| 2026-04-21 21:35 | 56.06529 | 43.72596 | 3008 ft | 205 kts | 10° |
| 2026-04-21 21:35 | 56.07874 | 43.73080 | 2996 ft | 193 kts | 11° |
| 2026-04-21 21:36 | 56.09173 | 43.73550 | 2840 ft | 189 kts | 10° |
| 2026-04-21 21:36 | 56.10422 | 43.74003 | 2640 ft | 176 kts | 10° |
| 2026-04-21 21:36 | 56.11581 | 43.74425 | 2388 ft | 165 kts | 10° |
| 2026-04-21 21:36 | 56.12670 | 43.74821 | 2155 ft | 155 kts | 9° |
| 2026-04-21 21:37 | 56.13352 | 43.75070 | 1991 ft | 148 kts | 9° |
| 2026-04-21 21:37 | 56.15633 | 43.75900 | 1538 ft | 135 kts | 8° |
| 2026-04-21 21:37 | 56.16554 | 43.76235 | 1350 ft | 135 kts | 8° |
| 2026-04-21 21:38 | 56.17476 | 43.76570 | 1140 ft | 136 kts | 9° |
| 2026-04-21 21:38 | 56.18406 | 43.76909 | 942 ft | 137 kts | 10° |
| 2026-04-21 21:38 | 56.19341 | 43.77251 | 751 ft | 137 kts | 11° |
| 2026-04-21 21:38 | 56.20280 | 43.77609 | 594 ft | 138 kts | 12° |
| 2026-04-21 21:39 | 56.21219 | 43.77951 | 388 ft | 137 kts | 11° |
| 2026-04-21 21:39 | 56.22154 | 43.78271 | 294 ft | 137 kts | 11° |
| 2026-04-21 21:39 | 56.23035 | 43.78592 | 263 ft | 114 kts | 13° |
| 2026-04-21 21:39 | 56.23622 | 43.78816 | 258 ft | 53 kts | 11° |
| 2026-04-21 21:40 | 56.23882 | 43.78911 | 262 ft | 33 kts | 11° |
| 2026-04-21 21:40 | 56.24097 | 43.78994 | 263 ft | 23 kts | 13° |
| 2026-04-21 21:40 | 56.24145 | 43.78914 | 262 ft | 11 kts | 270° |
| 2026-04-21 21:40 | 56.24159 | 43.78810 | 262 ft | 0 kts | 285° |
| 2026-04-21 21:41 | 56.24167 | 43.78768 | 262 ft | 7 kts | 294° |
| 2026-04-21 21:41 | 56.24156 | 43.78735 | 263 ft | 4 kts | 131° |
| 2026-04-21 21:41 | 56.24152 | 43.78856 | 262 ft | 15 kts | 98° |
| 2026-04-21 21:42 | 56.24112 | 43.79069 | 262 ft | 20 kts | 110° |
| 2026-04-21 21:42 | 56.24028 | 43.79257 | 261 ft | 20 kts | 152° |
| 2026-04-21 21:42 | 56.23901 | 43.79264 | 261 ft | 17 kts | 165° |
| 2026-04-21 21:42 | 56.23858 | 43.79269 | 261 ft | 0 kts | 181° |